sensor_id;sensor_type;location;lat;lon;timestamp;P1;durP1;ratioP1;P2;durP2;ratioP2
6420;SDS011;3243;50.958;7.012;2023-05-10T00:00:24;8.10;;;7.40;;
6420;SDS011;3243;50.958;7.012;2023-05-10T00:02:51;8.03;;;7.27;;
6420;SDS011;3243;50.958;7.012;2023-05-10T00:05:18;8.20;;;7.40;;
6420;SDS011;3243;50.958;7.012;2023-05-10T00:07:45;9.07;;;8.17;;
6420;SDS011;3243;50.958;7.012;2023-05-10T00:10:12;11.80;;;8.23;;
6420;SDS011;3243;50.958;7.012;2023-05-10T00:12:39;8.20;;;7.40;;
6420;SDS011;3243;50.958;7.012;2023-05-10T00:15:06;8.97;;;7.97;;
6420;SDS011;3243;50.958;7.012;2023-05-10T00:17:34;10.07;;;8.93;;
6420;SDS011;3243;50.958;7.012;2023-05-10T00:20:00;10.17;;;8.57;;
6420;SDS011;3243;50.958;7.012;2023-05-10T00:22:28;10.07;;;9.03;;
6420;SDS011;3243;50.958;7.012;2023-05-10T00:24:55;10.83;;;9.43;;
6420;SDS011;3243;50.958;7.012;2023-05-10T00:27:22;9.43;;;8.50;;
6420;SDS011;3243;50.958;7.012;2023-05-10T00:29:48;9.83;;;8.73;;
6420;SDS011;3243;50.958;7.012;2023-05-10T00:32:15;11.10;;;9.13;;
6420;SDS011;3243;50.958;7.012;2023-05-10T00:34:42;12.33;;;10.17;;
6420;SDS011;3243;50.958;7.012;2023-05-10T00:37:09;10.80;;;9.13;;
6420;SDS011;3243;50.958;7.012;2023-05-10T00:39:36;12.90;;;10.23;;
6420;SDS011;3243;50.958;7.012;2023-05-10T00:42:03;10.30;;;9.30;;
6420;SDS011;3243;50.958;7.012;2023-05-10T00:44:30;12.40;;;10.40;;
6420;SDS011;3243;50.958;7.012;2023-05-10T00:46:57;11.33;;;10.13;;
6420;SDS011;3243;50.958;7.012;2023-05-10T00:49:25;10.40;;;9.27;;
6420;SDS011;3243;50.958;7.012;2023-05-10T00:51:52;13.10;;;10.27;;
6420;SDS011;3243;50.958;7.012;2023-05-10T00:54:19;14.47;;;11.43;;
6420;SDS011;3243;50.958;7.012;2023-05-10T00:56:46;16.30;;;12.70;;
6420;SDS011;3243;50.958;7.012;2023-05-10T00:59:20;14.43;;;11.20;;
6420;SDS011;3243;50.958;7.012;2023-05-10T01:01:47;14.17;;;11.67;;
6420;SDS011;3243;50.958;7.012;2023-05-10T01:04:14;12.33;;;10.57;;
6420;SDS011;3243;50.958;7.012;2023-05-10T01:06:41;15.17;;;12.40;;
6420;SDS011;3243;50.958;7.012;2023-05-10T01:12:52;15.27;;;12.00;;
6420;SDS011;3243;50.958;7.012;2023-05-10T01:15:19;15.23;;;12.03;;
6420;SDS011;3243;50.958;7.012;2023-05-10T01:17:47;14.90;;;11.63;;
6420;SDS011;3243;50.958;7.012;2023-05-10T01:20:15;14.67;;;12.07;;
6420;SDS011;3243;50.958;7.012;2023-05-10T01:30:58;16.60;;;12.00;;
6420;SDS011;3243;50.958;7.012;2023-05-10T01:33:33;14.23;;;11.90;;
6420;SDS011;3243;50.958;7.012;2023-05-10T01:38:43;14.07;;;12.13;;
6420;SDS011;3243;50.958;7.012;2023-05-10T01:41:36;13.97;;;12.03;;
6420;SDS011;3243;50.958;7.012;2023-05-10T01:44:24;14.03;;;11.97;;
6420;SDS011;3243;50.958;7.012;2023-05-10T01:49:50;13.93;;;11.20;;
6420;SDS011;3243;50.958;7.012;2023-05-10T01:52:20;13.60;;;11.27;;
6420;SDS011;3243;50.958;7.012;2023-05-10T01:54:54;15.20;;;11.47;;
6420;SDS011;3243;50.958;7.012;2023-05-10T01:57:27;13.10;;;11.70;;
6420;SDS011;3243;50.958;7.012;2023-05-10T02:00:00;17.33;;;12.57;;
6420;SDS011;3243;50.958;7.012;2023-05-10T02:02:29;15.00;;;12.03;;
6420;SDS011;3243;50.958;7.012;2023-05-10T02:05:03;10.47;;;8.93;;
6420;SDS011;3243;50.958;7.012;2023-05-10T02:07:33;12.60;;;10.20;;
6420;SDS011;3243;50.958;7.012;2023-05-10T02:10:02;20.33;;;15.53;;
6420;SDS011;3243;50.958;7.012;2023-05-10T02:12:47;11.50;;;9.77;;
6420;SDS011;3243;50.958;7.012;2023-05-10T02:15:20;10.17;;;7.37;;
6420;SDS011;3243;50.958;7.012;2023-05-10T02:17:49;8.70;;;6.10;;
6420;SDS011;3243;50.958;7.012;2023-05-10T02:20:16;8.07;;;5.53;;
6420;SDS011;3243;50.958;7.012;2023-05-10T02:22:45;7.03;;;4.90;;
6420;SDS011;3243;50.958;7.012;2023-05-10T02:25:15;8.17;;;4.87;;
6420;SDS011;3243;50.958;7.012;2023-05-10T02:27:42;6.80;;;4.70;;
6420;SDS011;3243;50.958;7.012;2023-05-10T02:30:11;5.70;;;4.57;;
6420;SDS011;3243;50.958;7.012;2023-05-10T02:32:39;6.80;;;4.97;;
6420;SDS011;3243;50.958;7.012;2023-05-10T02:35:07;7.00;;;4.60;;
6420;SDS011;3243;50.958;7.012;2023-05-10T02:37:36;12.50;;;7.33;;
6420;SDS011;3243;50.958;7.012;2023-05-10T02:40:04;22.90;;;16.80;;
6420;SDS011;3243;50.958;7.012;2023-05-10T02:42:32;6.63;;;4.87;;
6420;SDS011;3243;50.958;7.012;2023-05-10T02:45:02;10.20;;;7.37;;
6420;SDS011;3243;50.958;7.012;2023-05-10T02:47:33;7.70;;;5.03;;
6420;SDS011;3243;50.958;7.012;2023-05-10T02:50:00;11.07;;;5.37;;
6420;SDS011;3243;50.958;7.012;2023-05-10T02:52:28;6.07;;;4.83;;
6420;SDS011;3243;50.958;7.012;2023-05-10T02:55:01;7.10;;;4.93;;
6420;SDS011;3243;50.958;7.012;2023-05-10T02:57:33;5.97;;;5.27;;
6420;SDS011;3243;50.958;7.012;2023-05-10T03:00:02;8.43;;;5.50;;
6420;SDS011;3243;50.958;7.012;2023-05-10T03:02:29;8.90;;;6.10;;
6420;SDS011;3243;50.958;7.012;2023-05-10T03:04:57;10.53;;;6.83;;
6420;SDS011;3243;50.958;7.012;2023-05-10T03:07:24;8.77;;;6.70;;
6420;SDS011;3243;50.958;7.012;2023-05-10T03:09:51;9.87;;;6.63;;
6420;SDS011;3243;50.958;7.012;2023-05-10T03:20:03;11.13;;;7.00;;
6420;SDS011;3243;50.958;7.012;2023-05-10T03:22:44;11.70;;;8.13;;
6420;SDS011;3243;50.958;7.012;2023-05-10T03:25:13;9.67;;;7.17;;
6420;SDS011;3243;50.958;7.012;2023-05-10T03:27:43;9.80;;;7.83;;
6420;SDS011;3243;50.958;7.012;2023-05-10T03:30:12;8.40;;;6.93;;
6420;SDS011;3243;50.958;7.012;2023-05-10T03:32:40;9.73;;;7.23;;
6420;SDS011;3243;50.958;7.012;2023-05-10T03:35:10;11.03;;;7.83;;
6420;SDS011;3243;50.958;7.012;2023-05-10T03:37:39;11.37;;;7.90;;
6420;SDS011;3243;50.958;7.012;2023-05-10T03:40:06;8.77;;;7.00;;
6420;SDS011;3243;50.958;7.012;2023-05-10T03:42:33;10.27;;;7.13;;
6420;SDS011;3243;50.958;7.012;2023-05-10T03:45:00;10.93;;;7.37;;
6420;SDS011;3243;50.958;7.012;2023-05-10T03:47:27;9.50;;;7.00;;
6420;SDS011;3243;50.958;7.012;2023-05-10T03:49:54;11.53;;;8.27;;
6420;SDS011;3243;50.958;7.012;2023-05-10T03:52:20;11.27;;;7.83;;
6420;SDS011;3243;50.958;7.012;2023-05-10T03:54:47;11.47;;;8.50;;
6420;SDS011;3243;50.958;7.012;2023-05-10T03:57:14;10.93;;;8.10;;
6420;SDS011;3243;50.958;7.012;2023-05-10T03:59:41;9.60;;;7.77;;
6420;SDS011;3243;50.958;7.012;2023-05-10T04:02:08;10.70;;;8.70;;
6420;SDS011;3243;50.958;7.012;2023-05-10T04:04:35;11.27;;;8.83;;
6420;SDS011;3243;50.958;7.012;2023-05-10T04:07:02;13.50;;;9.53;;
6420;SDS011;3243;50.958;7.012;2023-05-10T04:09:29;12.87;;;9.83;;
6420;SDS011;3243;50.958;7.012;2023-05-10T04:11:56;14.30;;;10.23;;
6420;SDS011;3243;50.958;7.012;2023-05-10T04:14:23;13.73;;;10.20;;
6420;SDS011;3243;50.958;7.012;2023-05-10T04:16:50;13.20;;;10.00;;
6420;SDS011;3243;50.958;7.012;2023-05-10T04:19:17;15.10;;;10.20;;
6420;SDS011;3243;50.958;7.012;2023-05-10T04:21:44;16.40;;;10.70;;
6420;SDS011;3243;50.958;7.012;2023-05-10T04:24:11;15.60;;;11.13;;
6420;SDS011;3243;50.958;7.012;2023-05-10T04:26:38;13.30;;;10.13;;
6420;SDS011;3243;50.958;7.012;2023-05-10T04:29:06;14.27;;;11.30;;
6420;SDS011;3243;50.958;7.012;2023-05-10T04:31:32;22.90;;;14.93;;
6420;SDS011;3243;50.958;7.012;2023-05-10T04:34:00;16.53;;;12.53;;
6420;SDS011;3243;50.958;7.012;2023-05-10T04:36:27;18.83;;;14.40;;
6420;SDS011;3243;50.958;7.012;2023-05-10T04:38:54;19.93;;;14.13;;
6420;SDS011;3243;50.958;7.012;2023-05-10T04:41:21;24.70;;;15.73;;
6420;SDS011;3243;50.958;7.012;2023-05-10T04:43:48;18.03;;;14.17;;
6420;SDS011;3243;50.958;7.012;2023-05-10T04:46:15;24.67;;;16.20;;
6420;SDS011;3243;50.958;7.012;2023-05-10T04:48:42;24.57;;;16.70;;
6420;SDS011;3243;50.958;7.012;2023-05-10T04:51:09;18.33;;;14.40;;
6420;SDS011;3243;50.958;7.012;2023-05-10T04:53:36;18.97;;;14.80;;
6420;SDS011;3243;50.958;7.012;2023-05-10T04:56:03;23.10;;;16.20;;
6420;SDS011;3243;50.958;7.012;2023-05-10T04:58:30;24.67;;;16.33;;
6420;SDS011;3243;50.958;7.012;2023-05-10T05:00:59;18.77;;;14.40;;
6420;SDS011;3243;50.958;7.012;2023-05-10T05:03:32;26.00;;;16.53;;
6420;SDS011;3243;50.958;7.012;2023-05-10T05:05:59;22.43;;;15.57;;
6420;SDS011;3243;50.958;7.012;2023-05-10T05:08:26;25.20;;;16.30;;
6420;SDS011;3243;50.958;7.012;2023-05-10T05:10:53;21.67;;;15.90;;
6420;SDS011;3243;50.958;7.012;2023-05-10T05:13:20;21.00;;;15.37;;
6420;SDS011;3243;50.958;7.012;2023-05-10T05:15:48;18.67;;;14.37;;
6420;SDS011;3243;50.958;7.012;2023-05-10T05:18:15;16.03;;;13.53;;
6420;SDS011;3243;50.958;7.012;2023-05-10T05:20:42;21.70;;;14.67;;
6420;SDS011;3243;50.958;7.012;2023-05-10T05:23:08;19.60;;;13.13;;
6420;SDS011;3243;50.958;7.012;2023-05-10T05:25:35;17.87;;;13.53;;
6420;SDS011;3243;50.958;7.012;2023-05-10T05:28:02;18.87;;;13.43;;
6420;SDS011;3243;50.958;7.012;2023-05-10T05:30:29;19.07;;;14.23;;
6420;SDS011;3243;50.958;7.012;2023-05-10T05:32:56;18.70;;;13.90;;
6420;SDS011;3243;50.958;7.012;2023-05-10T05:35:23;16.77;;;13.07;;
6420;SDS011;3243;50.958;7.012;2023-05-10T05:37:50;14.80;;;12.13;;
6420;SDS011;3243;50.958;7.012;2023-05-10T05:40:17;18.70;;;13.33;;
6420;SDS011;3243;50.958;7.012;2023-05-10T05:42:44;18.93;;;14.03;;
6420;SDS011;3243;50.958;7.012;2023-05-10T05:45:11;15.47;;;11.77;;
6420;SDS011;3243;50.958;7.012;2023-05-10T05:47:42;16.93;;;11.63;;
6420;SDS011;3243;50.958;7.012;2023-05-10T05:50:09;18.00;;;11.80;;
6420;SDS011;3243;50.958;7.012;2023-05-10T05:52:36;14.53;;;11.00;;
6420;SDS011;3243;50.958;7.012;2023-05-10T05:55:03;13.43;;;10.57;;
6420;SDS011;3243;50.958;7.012;2023-05-10T05:57:31;12.70;;;10.83;;
6420;SDS011;3243;50.958;7.012;2023-05-10T05:59:57;16.07;;;12.53;;
6420;SDS011;3243;50.958;7.012;2023-05-10T06:02:25;19.73;;;12.37;;
6420;SDS011;3243;50.958;7.012;2023-05-10T06:04:52;18.80;;;12.20;;
6420;SDS011;3243;50.958;7.012;2023-05-10T06:07:19;17.93;;;11.40;;
6420;SDS011;3243;50.958;7.012;2023-05-10T06:09:46;16.10;;;11.33;;
6420;SDS011;3243;50.958;7.012;2023-05-10T06:12:13;13.30;;;10.87;;
6420;SDS011;3243;50.958;7.012;2023-05-10T06:14:40;19.47;;;11.00;;
6420;SDS011;3243;50.958;7.012;2023-05-10T06:17:07;15.90;;;10.67;;
6420;SDS011;3243;50.958;7.012;2023-05-10T06:19:34;15.40;;;11.13;;
6420;SDS011;3243;50.958;7.012;2023-05-10T06:22:02;19.43;;;12.23;;
6420;SDS011;3243;50.958;7.012;2023-05-10T06:24:37;15.27;;;10.67;;
6420;SDS011;3243;50.958;7.012;2023-05-10T06:27:04;16.20;;;10.50;;
6420;SDS011;3243;50.958;7.012;2023-05-10T06:29:32;14.80;;;10.43;;
6420;SDS011;3243;50.958;7.012;2023-05-10T06:31:59;15.00;;;10.27;;
6420;SDS011;3243;50.958;7.012;2023-05-10T06:34:26;18.60;;;10.83;;
6420;SDS011;3243;50.958;7.012;2023-05-10T06:36:53;15.17;;;10.30;;
6420;SDS011;3243;50.958;7.012;2023-05-10T06:39:20;16.20;;;10.77;;
6420;SDS011;3243;50.958;7.012;2023-05-10T06:41:47;16.77;;;10.77;;
6420;SDS011;3243;50.958;7.012;2023-05-10T06:44:14;19.43;;;12.20;;
6420;SDS011;3243;50.958;7.012;2023-05-10T06:46:41;17.73;;;11.53;;
6420;SDS011;3243;50.958;7.012;2023-05-10T06:49:08;15.10;;;10.67;;
6420;SDS011;3243;50.958;7.012;2023-05-10T06:51:35;22.20;;;11.93;;
6420;SDS011;3243;50.958;7.012;2023-05-10T06:54:02;18.23;;;11.40;;
6420;SDS011;3243;50.958;7.012;2023-05-10T06:56:29;19.40;;;11.83;;
6420;SDS011;3243;50.958;7.012;2023-05-10T06:58:56;18.47;;;12.10;;
6420;SDS011;3243;50.958;7.012;2023-05-10T07:01:23;17.93;;;11.80;;
6420;SDS011;3243;50.958;7.012;2023-05-10T07:03:50;20.70;;;12.40;;
6420;SDS011;3243;50.958;7.012;2023-05-10T07:06:18;20.43;;;12.67;;
6420;SDS011;3243;50.958;7.012;2023-05-10T07:08:58;25.03;;;13.33;;
6420;SDS011;3243;50.958;7.012;2023-05-10T07:11:25;19.17;;;12.23;;
6420;SDS011;3243;50.958;7.012;2023-05-10T07:13:52;21.93;;;12.73;;
6420;SDS011;3243;50.958;7.012;2023-05-10T07:16:19;18.60;;;12.80;;
6420;SDS011;3243;50.958;7.012;2023-05-10T07:18:47;17.37;;;12.60;;
6420;SDS011;3243;50.958;7.012;2023-05-10T07:21:16;16.10;;;11.50;;
6420;SDS011;3243;50.958;7.012;2023-05-10T07:23:43;26.33;;;13.80;;
6420;SDS011;3243;50.958;7.012;2023-05-10T07:26:10;16.47;;;11.57;;
6420;SDS011;3243;50.958;7.012;2023-05-10T07:28:37;18.13;;;12.20;;
6420;SDS011;3243;50.958;7.012;2023-05-10T07:31:05;18.17;;;12.40;;
6420;SDS011;3243;50.958;7.012;2023-05-10T07:33:31;18.97;;;11.60;;
6420;SDS011;3243;50.958;7.012;2023-05-10T07:35:58;18.30;;;11.10;;
6420;SDS011;3243;50.958;7.012;2023-05-10T07:38:25;16.27;;;11.23;;
6420;SDS011;3243;50.958;7.012;2023-05-10T07:40:52;16.47;;;10.83;;
6420;SDS011;3243;50.958;7.012;2023-05-10T07:43:19;16.07;;;10.57;;
6420;SDS011;3243;50.958;7.012;2023-05-10T07:45:46;16.17;;;10.10;;
6420;SDS011;3243;50.958;7.012;2023-05-10T07:48:20;14.50;;;10.97;;
6420;SDS011;3243;50.958;7.012;2023-05-10T07:50:47;14.70;;;10.23;;
6420;SDS011;3243;50.958;7.012;2023-05-10T07:53:14;16.20;;;10.47;;
6420;SDS011;3243;50.958;7.012;2023-05-10T07:55:41;16.77;;;10.97;;
6420;SDS011;3243;50.958;7.012;2023-05-10T07:58:07;15.00;;;10.03;;
6420;SDS011;3243;50.958;7.012;2023-05-10T08:00:34;14.30;;;10.43;;
6420;SDS011;3243;50.958;7.012;2023-05-10T08:03:01;13.63;;;9.20;;
6420;SDS011;3243;50.958;7.012;2023-05-10T08:05:28;17.20;;;11.03;;
6420;SDS011;3243;50.958;7.012;2023-05-10T08:07:55;13.67;;;8.87;;
6420;SDS011;3243;50.958;7.012;2023-05-10T08:10:23;10.53;;;8.70;;
6420;SDS011;3243;50.958;7.012;2023-05-10T08:12:50;11.17;;;8.80;;
6420;SDS011;3243;50.958;7.012;2023-05-10T08:15:17;12.20;;;8.80;;
6420;SDS011;3243;50.958;7.012;2023-05-10T08:17:44;11.80;;;9.67;;
6420;SDS011;3243;50.958;7.012;2023-05-10T08:20:11;14.10;;;10.73;;
6420;SDS011;3243;50.958;7.012;2023-05-10T08:22:42;15.67;;;9.10;;
6420;SDS011;3243;50.958;7.012;2023-05-10T08:25:09;12.50;;;9.30;;
6420;SDS011;3243;50.958;7.012;2023-05-10T08:27:36;16.27;;;10.30;;
6420;SDS011;3243;50.958;7.012;2023-05-10T08:30:03;11.33;;;8.70;;
6420;SDS011;3243;50.958;7.012;2023-05-10T08:32:30;12.23;;;8.97;;
6420;SDS011;3243;50.958;7.012;2023-05-10T08:34:57;12.30;;;9.57;;
6420;SDS011;3243;50.958;7.012;2023-05-10T08:37:24;10.53;;;8.60;;
6420;SDS011;3243;50.958;7.012;2023-05-10T08:39:51;15.27;;;9.87;;
6420;SDS011;3243;50.958;7.012;2023-05-10T08:42:19;11.73;;;8.40;;
6420;SDS011;3243;50.958;7.012;2023-05-10T08:44:48;11.47;;;8.57;;
6420;SDS011;3243;50.958;7.012;2023-05-10T08:47:16;11.80;;;7.37;;
6420;SDS011;3243;50.958;7.012;2023-05-10T08:49:44;8.80;;;6.87;;
6420;SDS011;3243;50.958;7.012;2023-05-10T08:52:17;8.30;;;6.67;;
6420;SDS011;3243;50.958;7.012;2023-05-10T08:54:44;9.30;;;6.60;;
6420;SDS011;3243;50.958;7.012;2023-05-10T08:57:11;7.67;;;5.80;;
6420;SDS011;3243;50.958;7.012;2023-05-10T08:59:37;10.13;;;7.30;;
6420;SDS011;3243;50.958;7.012;2023-05-10T09:02:06;10.63;;;8.10;;
6420;SDS011;3243;50.958;7.012;2023-05-10T09:04:33;10.37;;;7.50;;
6420;SDS011;3243;50.958;7.012;2023-05-10T09:07:00;9.07;;;7.20;;
6420;SDS011;3243;50.958;7.012;2023-05-10T09:09:27;15.50;;;11.30;;
6420;SDS011;3243;50.958;7.012;2023-05-10T09:11:55;14.83;;;11.10;;
6420;SDS011;3243;50.958;7.012;2023-05-10T09:14:21;12.20;;;10.30;;
6420;SDS011;3243;50.958;7.012;2023-05-10T09:16:50;13.03;;;11.07;;
6420;SDS011;3243;50.958;7.012;2023-05-10T09:19:18;14.07;;;11.10;;
6420;SDS011;3243;50.958;7.012;2023-05-10T09:21:44;12.73;;;10.60;;
6420;SDS011;3243;50.958;7.012;2023-05-10T09:24:11;14.20;;;11.13;;
6420;SDS011;3243;50.958;7.012;2023-05-10T09:26:48;15.90;;;11.90;;
6420;SDS011;3243;50.958;7.012;2023-05-10T09:29:15;17.07;;;12.30;;
6420;SDS011;3243;50.958;7.012;2023-05-10T09:31:49;14.93;;;10.80;;
6420;SDS011;3243;50.958;7.012;2023-05-10T09:34:18;16.67;;;12.40;;
6420;SDS011;3243;50.958;7.012;2023-05-10T09:36:53;20.00;;;14.97;;
6420;SDS011;3243;50.958;7.012;2023-05-10T09:41:59;21.40;;;14.00;;
6420;SDS011;3243;50.958;7.012;2023-05-10T09:44:30;20.90;;;14.27;;
6420;SDS011;3243;50.958;7.012;2023-05-10T09:46:57;24.27;;;15.63;;
6420;SDS011;3243;50.958;7.012;2023-05-10T09:49:24;26.57;;;16.90;;
6420;SDS011;3243;50.958;7.012;2023-05-10T09:52:04;27.97;;;16.90;;
6420;SDS011;3243;50.958;7.012;2023-05-10T09:54:33;24.13;;;15.20;;
6420;SDS011;3243;50.958;7.012;2023-05-10T09:57:00;23.13;;;13.97;;
6420;SDS011;3243;50.958;7.012;2023-05-10T09:59:28;21.70;;;14.00;;
6420;SDS011;3243;50.958;7.012;2023-05-10T10:01:56;21.60;;;13.83;;
6420;SDS011;3243;50.958;7.012;2023-05-10T10:04:24;20.80;;;14.03;;
6420;SDS011;3243;50.958;7.012;2023-05-10T10:06:58;21.87;;;14.50;;
6420;SDS011;3243;50.958;7.012;2023-05-10T10:09:30;19.30;;;12.67;;
6420;SDS011;3243;50.958;7.012;2023-05-10T10:11:57;20.70;;;11.90;;
6420;SDS011;3243;50.958;7.012;2023-05-10T10:14:26;19.50;;;12.43;;
6420;SDS011;3243;50.958;7.012;2023-05-10T10:16:53;21.27;;;13.70;;
6420;SDS011;3243;50.958;7.012;2023-05-10T10:19:35;17.13;;;12.40;;
6420;SDS011;3243;50.958;7.012;2023-05-10T10:22:03;13.67;;;9.97;;
6420;SDS011;3243;50.958;7.012;2023-05-10T10:24:30;12.57;;;9.50;;
6420;SDS011;3243;50.958;7.012;2023-05-10T10:27:20;13.43;;;9.30;;
6420;SDS011;3243;50.958;7.012;2023-05-10T10:30:04;13.60;;;9.33;;
6420;SDS011;3243;50.958;7.012;2023-05-10T10:35:42;11.20;;;8.57;;
6420;SDS011;3243;50.958;7.012;2023-05-10T10:38:12;12.17;;;9.00;;
6420;SDS011;3243;50.958;7.012;2023-05-10T10:40:39;11.67;;;9.13;;
6420;SDS011;3243;50.958;7.012;2023-05-10T10:46:09;10.83;;;8.07;;
6420;SDS011;3243;50.958;7.012;2023-05-10T10:48:41;11.73;;;8.80;;
6420;SDS011;3243;50.958;7.012;2023-05-10T10:51:13;11.70;;;8.00;;
6420;SDS011;3243;50.958;7.012;2023-05-10T10:53:40;12.17;;;8.57;;
6420;SDS011;3243;50.958;7.012;2023-05-10T10:56:08;11.73;;;8.10;;
6420;SDS011;3243;50.958;7.012;2023-05-10T10:58:37;10.07;;;7.78;;
6420;SDS011;3243;50.958;7.012;2023-05-10T11:01:11;10.47;;;7.53;;
6420;SDS011;3243;50.958;7.012;2023-05-10T11:06:33;8.90;;;6.13;;
6420;SDS011;3243;50.958;7.012;2023-05-10T11:09:10;10.17;;;6.77;;
6420;SDS011;3243;50.958;7.012;2023-05-10T11:11:51;7.93;;;5.77;;
6420;SDS011;3243;50.958;7.012;2023-05-10T11:14:21;10.73;;;6.73;;
6420;SDS011;3243;50.958;7.012;2023-05-10T11:16:48;8.20;;;6.67;;
6420;SDS011;3243;50.958;7.012;2023-05-10T11:19:16;10.13;;;7.17;;
6420;SDS011;3243;50.958;7.012;2023-05-10T11:24:30;10.23;;;7.50;;
6420;SDS011;3243;50.958;7.012;2023-05-10T11:26:57;10.07;;;7.00;;
6420;SDS011;3243;50.958;7.012;2023-05-10T11:29:24;10.03;;;7.37;;
6420;SDS011;3243;50.958;7.012;2023-05-10T11:31:52;8.80;;;6.60;;
6420;SDS011;3243;50.958;7.012;2023-05-10T11:34:23;8.27;;;5.90;;
6420;SDS011;3243;50.958;7.012;2023-05-10T11:36:55;9.17;;;6.47;;
6420;SDS011;3243;50.958;7.012;2023-05-10T11:39:29;8.70;;;5.83;;
6420;SDS011;3243;50.958;7.012;2023-05-10T11:41:57;8.30;;;5.70;;
6420;SDS011;3243;50.958;7.012;2023-05-10T11:44:30;10.10;;;5.70;;
6420;SDS011;3243;50.958;7.012;2023-05-10T11:47:01;9.97;;;5.60;;
6420;SDS011;3243;50.958;7.012;2023-05-10T11:49:28;5.03;;;4.40;;
6420;SDS011;3243;50.958;7.012;2023-05-10T11:52:04;4.87;;;3.70;;
6420;SDS011;3243;50.958;7.012;2023-05-10T11:54:32;4.27;;;3.87;;
6420;SDS011;3243;50.958;7.012;2023-05-10T11:57:00;4.83;;;4.17;;
6420;SDS011;3243;50.958;7.012;2023-05-10T11:59:27;4.13;;;3.57;;
6420;SDS011;3243;50.958;7.012;2023-05-10T12:01:54;3.83;;;3.10;;
6420;SDS011;3243;50.958;7.012;2023-05-10T12:04:22;4.20;;;3.10;;
6420;SDS011;3243;50.958;7.012;2023-05-10T12:06:49;2.90;;;2.63;;
6420;SDS011;3243;50.958;7.012;2023-05-10T12:09:15;3.40;;;2.28;;
6420;SDS011;3243;50.958;7.012;2023-05-10T12:11:56;5.88;;;2.42;;
6420;SDS011;3243;50.958;7.012;2023-05-10T12:14:24;2.70;;;2.50;;
6420;SDS011;3243;50.958;7.012;2023-05-10T12:16:50;2.38;;;2.17;;
6420;SDS011;3243;50.958;7.012;2023-05-10T12:19:18;2.87;;;2.27;;
6420;SDS011;3243;50.958;7.012;2023-05-10T12:21:48;2.70;;;2.45;;
6420;SDS011;3243;50.958;7.012;2023-05-10T12:24:15;3.20;;;2.43;;
6420;SDS011;3243;50.958;7.012;2023-05-10T12:26:45;3.50;;;2.50;;
6420;SDS011;3243;50.958;7.012;2023-05-10T12:29:15;2.85;;;2.40;;
6420;SDS011;3243;50.958;7.012;2023-05-10T12:31:53;2.65;;;2.00;;
6420;SDS011;3243;50.958;7.012;2023-05-10T12:36:58;2.50;;;2.30;;
6420;SDS011;3243;50.958;7.012;2023-05-10T12:39:25;2.13;;;1.88;;
6420;SDS011;3243;50.958;7.012;2023-05-10T12:41:52;2.13;;;1.90;;
6420;SDS011;3243;50.958;7.012;2023-05-10T12:44:19;3.08;;;2.60;;
6420;SDS011;3243;50.958;7.012;2023-05-10T12:46:46;2.97;;;2.13;;
6420;SDS011;3243;50.958;7.012;2023-05-10T12:49:13;2.30;;;2.10;;
6420;SDS011;3243;50.958;7.012;2023-05-10T12:51:40;2.60;;;2.35;;
6420;SDS011;3243;50.958;7.012;2023-05-10T12:54:08;3.47;;;2.20;;
6420;SDS011;3243;50.958;7.012;2023-05-10T12:56:35;2.17;;;1.98;;
6420;SDS011;3243;50.958;7.012;2023-05-10T12:59:03;2.77;;;2.43;;
6420;SDS011;3243;50.958;7.012;2023-05-10T13:01:29;2.75;;;2.38;;
6420;SDS011;3243;50.958;7.012;2023-05-10T13:03:57;2.63;;;2.42;;
6420;SDS011;3243;50.958;7.012;2023-05-10T13:06:23;3.10;;;2.72;;
6420;SDS011;3243;50.958;7.012;2023-05-10T13:08:50;2.65;;;2.45;;
6420;SDS011;3243;50.958;7.012;2023-05-10T13:11:17;2.35;;;2.15;;
6420;SDS011;3243;50.958;7.012;2023-05-10T13:13:45;3.00;;;2.20;;
6420;SDS011;3243;50.958;7.012;2023-05-10T13:16:13;2.83;;;2.28;;
6420;SDS011;3243;50.958;7.012;2023-05-10T13:18:39;2.30;;;2.00;;
6420;SDS011;3243;50.958;7.012;2023-05-10T13:21:06;2.30;;;2.10;;
6420;SDS011;3243;50.958;7.012;2023-05-10T13:23:34;2.80;;;2.03;;
6420;SDS011;3243;50.958;7.012;2023-05-10T13:26:01;2.35;;;2.13;;
6420;SDS011;3243;50.958;7.012;2023-05-10T13:28:28;2.10;;;1.90;;
6420;SDS011;3243;50.958;7.012;2023-05-10T13:30:55;2.17;;;1.80;;
6420;SDS011;3243;50.958;7.012;2023-05-10T13:33:23;1.83;;;1.73;;
6420;SDS011;3243;50.958;7.012;2023-05-10T13:35:49;2.63;;;1.98;;
6420;SDS011;3243;50.958;7.012;2023-05-10T13:38:19;3.40;;;2.13;;
6420;SDS011;3243;50.958;7.012;2023-05-10T13:40:47;2.27;;;2.07;;
6420;SDS011;3243;50.958;7.012;2023-05-10T13:43:18;2.15;;;1.92;;
6420;SDS011;3243;50.958;7.012;2023-05-10T13:45:46;2.08;;;1.80;;
6420;SDS011;3243;50.958;7.012;2023-05-10T13:48:13;3.13;;;2.20;;
6420;SDS011;3243;50.958;7.012;2023-05-10T13:50:40;2.08;;;1.85;;
6420;SDS011;3243;50.958;7.012;2023-05-10T13:53:07;3.67;;;2.03;;
6420;SDS011;3243;50.958;7.012;2023-05-10T13:55:34;2.17;;;1.90;;
6420;SDS011;3243;50.958;7.012;2023-05-10T13:58:01;2.77;;;2.00;;
6420;SDS011;3243;50.958;7.012;2023-05-10T14:00:29;2.90;;;1.77;;
6420;SDS011;3243;50.958;7.012;2023-05-10T14:02:56;2.53;;;2.25;;
6420;SDS011;3243;50.958;7.012;2023-05-10T14:05:22;2.20;;;2.00;;
6420;SDS011;3243;50.958;7.012;2023-05-10T14:07:51;2.13;;;1.80;;
6420;SDS011;3243;50.958;7.012;2023-05-10T14:10:18;2.27;;;2.07;;
6420;SDS011;3243;50.958;7.012;2023-05-10T14:12:46;3.20;;;2.60;;
6420;SDS011;3243;50.958;7.012;2023-05-10T14:15:12;3.07;;;2.00;;
6420;SDS011;3243;50.958;7.012;2023-05-10T14:17:40;1.70;;;1.60;;
6420;SDS011;3243;50.958;7.012;2023-05-10T14:20:07;2.03;;;1.83;;
6420;SDS011;3243;50.958;7.012;2023-05-10T14:22:34;2.25;;;1.95;;
6420;SDS011;3243;50.958;7.012;2023-05-10T14:25:01;1.77;;;1.67;;
6420;SDS011;3243;50.958;7.012;2023-05-10T14:27:28;1.73;;;1.50;;
6420;SDS011;3243;50.958;7.012;2023-05-10T14:29:56;2.17;;;1.80;;
6420;SDS011;3243;50.958;7.012;2023-05-10T14:32:23;1.70;;;1.50;;
6420;SDS011;3243;50.958;7.012;2023-05-10T14:34:50;2.72;;;2.53;;
6420;SDS011;3243;50.958;7.012;2023-05-10T14:37:17;3.97;;;2.63;;
6420;SDS011;3243;50.958;7.012;2023-05-10T14:39:44;2.23;;;2.00;;
6420;SDS011;3243;50.958;7.012;2023-05-10T14:42:11;2.23;;;1.80;;
6420;SDS011;3243;50.958;7.012;2023-05-10T14:44:38;1.70;;;1.60;;
6420;SDS011;3243;50.958;7.012;2023-05-10T14:47:04;2.30;;;2.10;;
6420;SDS011;3243;50.958;7.012;2023-05-10T14:49:31;2.10;;;1.87;;
6420;SDS011;3243;50.958;7.012;2023-05-10T14:51:58;1.75;;;1.58;;
6420;SDS011;3243;50.958;7.012;2023-05-10T14:54:25;4.10;;;2.50;;
6420;SDS011;3243;50.958;7.012;2023-05-10T14:56:52;3.40;;;2.20;;
6420;SDS011;3243;50.958;7.012;2023-05-10T14:59:20;1.87;;;1.70;;
6420;SDS011;3243;50.958;7.012;2023-05-10T15:01:47;2.17;;;1.90;;
6420;SDS011;3243;50.958;7.012;2023-05-10T15:04:14;5.43;;;2.17;;
6420;SDS011;3243;50.958;7.012;2023-05-10T15:06:43;4.30;;;2.73;;
6420;SDS011;3243;50.958;7.012;2023-05-10T15:09:09;3.77;;;2.73;;
6420;SDS011;3243;50.958;7.012;2023-05-10T15:11:37;3.67;;;2.97;;
6420;SDS011;3243;50.958;7.012;2023-05-10T15:14:04;3.20;;;2.50;;
6420;SDS011;3243;50.958;7.012;2023-05-10T15:16:32;5.43;;;2.97;;
6420;SDS011;3243;50.958;7.012;2023-05-10T15:19:01;4.60;;;3.67;;
6420;SDS011;3243;50.958;7.012;2023-05-10T15:21:28;4.27;;;3.80;;
6420;SDS011;3243;50.958;7.012;2023-05-10T15:24:01;9.30;;;5.77;;
6420;SDS011;3243;50.958;7.012;2023-05-10T15:26:27;7.77;;;5.97;;
6420;SDS011;3243;50.958;7.012;2023-05-10T15:28:54;7.07;;;5.13;;
6420;SDS011;3243;50.958;7.012;2023-05-10T15:31:21;6.83;;;5.27;;
6420;SDS011;3243;50.958;7.012;2023-05-10T15:33:48;9.20;;;6.67;;
6420;SDS011;3243;50.958;7.012;2023-05-10T15:36:15;9.70;;;6.57;;
6420;SDS011;3243;50.958;7.012;2023-05-10T15:38:43;9.27;;;6.50;;
6420;SDS011;3243;50.958;7.012;2023-05-10T15:41:10;9.23;;;6.70;;
6420;SDS011;3243;50.958;7.012;2023-05-10T15:43:37;10.03;;;7.70;;
6420;SDS011;3243;50.958;7.012;2023-05-10T15:46:05;7.17;;;5.97;;
6420;SDS011;3243;50.958;7.012;2023-05-10T15:48:32;12.20;;;7.00;;